sensor_id;sensor_type;location;lat;lon;timestamp;temperature;humidity
27384;DHT22;14851;51.166;4.760;2023-03-21T00:00:26;10.20;99.90
27384;DHT22;14851;51.166;4.760;2023-03-21T00:02:52;10.20;99.90
27384;DHT22;14851;51.166;4.760;2023-03-21T00:05:18;10.20;99.90
27384;DHT22;14851;51.166;4.760;2023-03-21T00:07:46;10.10;99.90
27384;DHT22;14851;51.166;4.760;2023-03-21T00:10:14;10.10;99.90
27384;DHT22;14851;51.166;4.760;2023-03-21T00:12:40;10.10;99.90
27384;DHT22;14851;51.166;4.760;2023-03-21T00:15:09;10.10;99.90
27384;DHT22;14851;51.166;4.760;2023-03-21T00:17:38;10.10;99.90
27384;DHT22;14851;51.166;4.760;2023-03-21T00:20:05;10.10;99.90
27384;DHT22;14851;51.166;4.760;2023-03-21T00:22:42;10.10;99.90
27384;DHT22;14851;51.166;4.760;2023-03-21T00:25:09;10.10;99.90
27384;DHT22;14851;51.166;4.760;2023-03-21T00:27:35;10.10;99.90
27384;DHT22;14851;51.166;4.760;2023-03-21T00:30:02;10.00;99.90
27384;DHT22;14851;51.166;4.760;2023-03-21T00:32:29;10.00;99.90
27384;DHT22;14851;51.166;4.760;2023-03-21T00:34:55;10.00;99.90
27384;DHT22;14851;51.166;4.760;2023-03-21T00:37:21;10.00;99.90
27384;DHT22;14851;51.166;4.760;2023-03-21T00:39:50;10.00;99.90
27384;DHT22;14851;51.166;4.760;2023-03-21T00:42:17;10.00;99.90
27384;DHT22;14851;51.166;4.760;2023-03-21T00:44:43;10.00;99.90
27384;DHT22;14851;51.166;4.760;2023-03-21T00:47:13;10.00;99.90
27384;DHT22;14851;51.166;4.760;2023-03-21T00:49:39;10.00;99.90
27384;DHT22;14851;51.166;4.760;2023-03-21T00:52:07;10.00;99.90
27384;DHT22;14851;51.166;4.760;2023-03-21T00:54:34;10.00;99.90
27384;DHT22;14851;51.166;4.760;2023-03-21T00:57:00;10.00;99.90
27384;DHT22;14851;51.166;4.760;2023-03-21T00:59:31;10.00;99.90
27384;DHT22;14851;51.166;4.760;2023-03-21T01:01:59;10.00;99.90
27384;DHT22;14851;51.166;4.760;2023-03-21T01:04:26;10.00;99.90
27384;DHT22;14851;51.166;4.760;2023-03-21T01:06:53;10.00;99.90
27384;DHT22;14851;51.166;4.760;2023-03-21T01:09:22;10.00;99.90
27384;DHT22;14851;51.166;4.760;2023-03-21T01:11:59;10.00;99.90
27384;DHT22;14851;51.166;4.760;2023-03-21T01:14:28;10.00;99.90
27384;DHT22;14851;51.166;4.760;2023-03-21T01:16:54;10.00;99.90
27384;DHT22;14851;51.166;4.760;2023-03-21T01:19:23;10.00;99.90
27384;DHT22;14851;51.166;4.760;2023-03-21T01:21:51;10.00;99.90
27384;DHT22;14851;51.166;4.760;2023-03-21T01:24:17;10.00;99.90
27384;DHT22;14851;51.166;4.760;2023-03-21T01:26:46;9.90;99.90
27384;DHT22;14851;51.166;4.760;2023-03-21T01:29:12;9.90;99.90
27384;DHT22;14851;51.166;4.760;2023-03-21T01:31:38;9.90;99.90
27384;DHT22;14851;51.166;4.760;2023-03-21T01:34:05;9.90;99.90
27384;DHT22;14851;51.166;4.760;2023-03-21T01:36:32;9.90;99.90
27384;DHT22;14851;51.166;4.760;2023-03-21T01:39:03;9.90;99.90
27384;DHT22;14851;51.166;4.760;2023-03-21T01:41:35;9.90;99.90
27384;DHT22;14851;51.166;4.760;2023-03-21T01:44:02;9.90;99.90
27384;DHT22;14851;51.166;4.760;2023-03-21T01:46:46;9.90;99.90
27384;DHT22;14851;51.166;4.760;2023-03-21T01:49:36;9.90;99.90
27384;DHT22;14851;51.166;4.760;2023-03-21T01:52:21;9.90;99.90
27384;DHT22;14851;51.166;4.760;2023-03-21T01:54:51;9.90;99.90
27384;DHT22;14851;51.166;4.760;2023-03-21T01:57:29;9.90;99.90
27384;DHT22;14851;51.166;4.760;2023-03-21T02:00:04;9.90;99.90
27384;DHT22;14851;51.166;4.760;2023-03-21T02:02:50;9.90;99.90
27384;DHT22;14851;51.166;4.760;2023-03-21T02:08:15;9.90;99.90
27384;DHT22;14851;51.166;4.760;2023-03-21T02:10:44;9.90;99.90
27384;DHT22;14851;51.166;4.760;2023-03-21T02:13:13;9.90;99.90
27384;DHT22;14851;51.166;4.760;2023-03-21T02:15:49;9.90;99.90
27384;DHT22;14851;51.166;4.760;2023-03-21T02:40:52;9.90;99.90
27384;DHT22;14851;51.166;4.760;2023-03-21T02:43:38;9.90;99.90
27384;DHT22;14851;51.166;4.760;2023-03-21T02:48:48;9.90;99.90
27384;DHT22;14851;51.166;4.760;2023-03-21T02:51:19;9.90;99.90
27384;DHT22;14851;51.166;4.760;2023-03-21T02:54:01;9.90;99.90
27384;DHT22;14851;51.166;4.760;2023-03-21T02:56:31;9.90;99.90
27384;DHT22;14851;51.166;4.760;2023-03-21T02:58:59;9.80;99.90
27384;DHT22;14851;51.166;4.760;2023-03-21T03:01:28;9.80;99.90
27384;DHT22;14851;51.166;4.760;2023-03-21T03:03:54;9.90;99.90
27384;DHT22;14851;51.166;4.760;2023-03-21T03:06:52;9.90;99.90
27384;DHT22;14851;51.166;4.760;2023-03-21T03:12:07;9.90;99.90
27384;DHT22;14851;51.166;4.760;2023-03-21T03:22:49;9.90;99.90
27384;DHT22;14851;51.166;4.760;2023-03-21T03:25:21;9.90;99.90
27384;DHT22;14851;51.166;4.760;2023-03-21T03:27:53;9.90;99.90
27384;DHT22;14851;51.166;4.760;2023-03-21T03:30:23;9.90;99.90
27384;DHT22;14851;51.166;4.760;2023-03-21T03:32:55;9.90;99.90
27384;DHT22;14851;51.166;4.760;2023-03-21T03:35:23;9.80;99.90
27384;DHT22;14851;51.166;4.760;2023-03-21T03:37:54;9.90;99.90
27384;DHT22;14851;51.166;4.760;2023-03-21T03:43:08;9.90;99.90
27384;DHT22;14851;51.166;4.760;2023-03-21T03:45:43;9.90;99.90
27384;DHT22;14851;51.166;4.760;2023-03-21T03:48:23;9.90;99.90
27384;DHT22;14851;51.166;4.760;2023-03-21T03:50:54;9.90;99.90
27384;DHT22;14851;51.166;4.760;2023-03-21T03:53:41;9.90;99.90
27384;DHT22;14851;51.166;4.760;2023-03-21T03:56:09;9.80;99.90
27384;DHT22;14851;51.166;4.760;2023-03-21T03:58:39;9.90;99.90
27384;DHT22;14851;51.166;4.760;2023-03-21T04:01:06;9.90;99.90
27384;DHT22;14851;51.166;4.760;2023-03-21T04:03:34;9.90;99.90
27384;DHT22;14851;51.166;4.760;2023-03-21T04:06:08;9.90;99.90
27384;DHT22;14851;51.166;4.760;2023-03-21T04:08:36;9.90;99.90
27384;DHT22;14851;51.166;4.760;2023-03-21T04:11:03;9.90;99.90
27384;DHT22;14851;51.166;4.760;2023-03-21T04:13:34;9.90;99.90
27384;DHT22;14851;51.166;4.760;2023-03-21T04:16:13;9.90;99.90
27384;DHT22;14851;51.166;4.760;2023-03-21T04:18:41;9.90;99.90
27384;DHT22;14851;51.166;4.760;2023-03-21T04:21:10;9.90;99.90
27384;DHT22;14851;51.166;4.760;2023-03-21T04:23:38;9.90;99.90
27384;DHT22;14851;51.166;4.760;2023-03-21T04:26:05;9.80;99.90
27384;DHT22;14851;51.166;4.760;2023-03-21T04:28:36;9.90;99.90
27384;DHT22;14851;51.166;4.760;2023-03-21T04:31:22;9.90;99.90
27384;DHT22;14851;51.166;4.760;2023-03-21T04:33:57;9.90;99.90
27384;DHT22;14851;51.166;4.760;2023-03-21T04:36:24;9.90;99.90
27384;DHT22;14851;51.166;4.760;2023-03-21T04:39:04;9.90;99.90
27384;DHT22;14851;51.166;4.760;2023-03-21T04:41:34;9.90;99.90
27384;DHT22;14851;51.166;4.760;2023-03-21T04:44:03;9.90;99.90
27384;DHT22;14851;51.166;4.760;2023-03-21T04:46:29;9.90;99.90
27384;DHT22;14851;51.166;4.760;2023-03-21T04:48:55;9.90;99.90
27384;DHT22;14851;51.166;4.760;2023-03-21T04:51:21;10.00;99.90
27384;DHT22;14851;51.166;4.760;2023-03-21T04:53:47;10.10;99.90
27384;DHT22;14851;51.166;4.760;2023-03-21T04:56:14;10.10;99.90
27384;DHT22;14851;51.166;4.760;2023-03-21T04:58:41;10.20;99.90
27384;DHT22;14851;51.166;4.760;2023-03-21T05:01:09;10.20;99.90
27384;DHT22;14851;51.166;4.760;2023-03-21T05:03:40;10.20;99.90
27384;DHT22;14851;51.166;4.760;2023-03-21T05:06:11;10.20;99.90
27384;DHT22;14851;51.166;4.760;2023-03-21T05:08:37;10.20;99.90
27384;DHT22;14851;51.166;4.760;2023-03-21T05:11:03;10.20;99.90
27384;DHT22;14851;51.166;4.760;2023-03-21T05:13:30;10.30;99.90
27384;DHT22;14851;51.166;4.760;2023-03-21T05:16:01;10.30;99.90
27384;DHT22;14851;51.166;4.760;2023-03-21T05:18:29;10.30;99.90
27384;DHT22;14851;51.166;4.760;2023-03-21T05:21:43;10.30;99.90
27384;DHT22;14851;51.166;4.760;2023-03-21T05:24:20;10.30;99.90
27384;DHT22;14851;51.166;4.760;2023-03-21T05:26:47;10.20;99.90
27384;DHT22;14851;51.166;4.760;2023-03-21T05:29:33;10.30;99.90
27384;DHT22;14851;51.166;4.760;2023-03-21T05:32:02;10.20;99.90
27384;DHT22;14851;51.166;4.760;2023-03-21T05:34:28;10.20;99.90
27384;DHT22;14851;51.166;4.760;2023-03-21T05:36:56;10.10;99.90
27384;DHT22;14851;51.166;4.760;2023-03-21T05:39:26;10.10;99.90
27384;DHT22;14851;51.166;4.760;2023-03-21T05:42:03;10.10;99.90
27384;DHT22;14851;51.166;4.760;2023-03-21T05:44:31;10.10;99.90
27384;DHT22;14851;51.166;4.760;2023-03-21T05:47:00;10.10;99.90
27384;DHT22;14851;51.166;4.760;2023-03-21T05:49:35;10.10;99.90
27384;DHT22;14851;51.166;4.760;2023-03-21T05:52:02;10.10;99.90
27384;DHT22;14851;51.166;4.760;2023-03-21T05:54:29;10.10;99.90
27384;DHT22;14851;51.166;4.760;2023-03-21T05:56:55;10.10;99.90
27384;DHT22;14851;51.166;4.760;2023-03-21T05:59:34;10.10;99.90
27384;DHT22;14851;51.166;4.760;2023-03-21T06:02:00;10.20;99.90
27384;DHT22;14851;51.166;4.760;2023-03-21T06:04:26;10.20;99.90
27384;DHT22;14851;51.166;4.760;2023-03-21T06:06:52;10.10;99.90
27384;DHT22;14851;51.166;4.760;2023-03-21T06:09:21;10.20;99.90
27384;DHT22;14851;51.166;4.760;2023-03-21T06:11:55;10.20;99.90
27384;DHT22;14851;51.166;4.760;2023-03-21T06:14:50;10.20;99.90
27384;DHT22;14851;51.166;4.760;2023-03-21T06:17:21;10.20;99.90
27384;DHT22;14851;51.166;4.760;2023-03-21T06:19:52;10.20;99.90
27384;DHT22;14851;51.166;4.760;2023-03-21T06:22:27;10.20;99.90
27384;DHT22;14851;51.166;4.760;2023-03-21T06:24:53;10.20;99.90
27384;DHT22;14851;51.166;4.760;2023-03-21T06:27:19;10.20;99.90
27384;DHT22;14851;51.166;4.760;2023-03-21T06:30:20;10.20;99.90
27384;DHT22;14851;51.166;4.760;2023-03-21T06:33:21;10.20;99.90
27384;DHT22;14851;51.166;4.760;2023-03-21T06:35:55;10.20;99.90
27384;DHT22;14851;51.166;4.760;2023-03-21T06:38:22;10.20;99.90
27384;DHT22;14851;51.166;4.760;2023-03-21T06:40:48;10.20;99.90
27384;DHT22;14851;51.166;4.760;2023-03-21T06:43:15;10.20;99.90
27384;DHT22;14851;51.166;4.760;2023-03-21T06:45:42;10.20;99.90
27384;DHT22;14851;51.166;4.760;2023-03-21T06:48:15;10.20;99.90
27384;DHT22;14851;51.166;4.760;2023-03-21T06:50:51;10.20;99.90
27384;DHT22;14851;51.166;4.760;2023-03-21T06:53:23;10.20;99.90
27384;DHT22;14851;51.166;4.760;2023-03-21T06:56:24;10.10;99.90
27384;DHT22;14851;51.166;4.760;2023-03-21T06:58:50;10.10;99.90
27384;DHT22;14851;51.166;4.760;2023-03-21T07:01:42;10.10;99.90
27384;DHT22;14851;51.166;4.760;2023-03-21T07:04:10;10.10;99.90
27384;DHT22;14851;51.166;4.760;2023-03-21T07:07:25;10.10;99.90
27384;DHT22;14851;51.166;4.760;2023-03-21T07:26:05;10.00;99.90
27384;DHT22;14851;51.166;4.760;2023-03-21T07:39:51;10.00;99.90
27384;DHT22;14851;51.166;4.760;2023-03-21T07:54:56;10.10;99.90
27384;DHT22;14851;51.166;4.760;2023-03-21T07:57:43;10.20;99.90
27384;DHT22;14851;51.166;4.760;2023-03-21T08:39:53;10.50;99.90
27384;DHT22;14851;51.166;4.760;2023-03-21T08:43:41;10.50;99.90
27384;DHT22;14851;51.166;4.760;2023-03-21T08:47:30;10.50;99.90
27384;DHT22;14851;51.166;4.760;2023-03-21T09:03:29;10.50;99.90
27384;DHT22;14851;51.166;4.760;2023-03-21T09:10:53;10.70;99.90
27384;DHT22;14851;51.166;4.760;2023-03-21T09:13:20;10.70;99.90
27384;DHT22;14851;51.166;4.760;2023-03-21T09:15:48;10.70;99.90
27384;DHT22;14851;51.166;4.760;2023-03-21T09:18:15;10.80;99.90
27384;DHT22;14851;51.166;4.760;2023-03-21T09:20:44;10.80;99.90
27384;DHT22;14851;51.166;4.760;2023-03-21T09:23:12;10.80;99.90
27384;DHT22;14851;51.166;4.760;2023-03-21T09:25:44;10.80;99.90
27384;DHT22;14851;51.166;4.760;2023-03-21T09:28:10;10.90;99.90
27384;DHT22;14851;51.166;4.760;2023-03-21T09:30:37;11.00;99.90
27384;DHT22;14851;51.166;4.760;2023-03-21T09:33:04;11.00;99.90
27384;DHT22;14851;51.166;4.760;2023-03-21T09:35:34;11.00;99.90
27384;DHT22;14851;51.166;4.760;2023-03-21T09:38:03;11.00;99.90
27384;DHT22;14851;51.166;4.760;2023-03-21T09:43:31;11.10;99.90
27384;DHT22;14851;51.166;4.760;2023-03-21T09:48:56;11.10;99.90
27384;DHT22;14851;51.166;4.760;2023-03-21T09:51:35;11.10;99.90
27384;DHT22;14851;51.166;4.760;2023-03-21T09:54:10;11.20;99.90
27384;DHT22;14851;51.166;4.760;2023-03-21T09:56:40;11.30;99.90
27384;DHT22;14851;51.166;4.760;2023-03-21T09:59:09;11.30;99.90
27384;DHT22;14851;51.166;4.760;2023-03-21T10:01:40;11.30;99.90
27384;DHT22;14851;51.166;4.760;2023-03-21T10:04:15;11.30;99.90
27384;DHT22;14851;51.166;4.760;2023-03-21T10:06:54;11.30;99.90
27384;DHT22;14851;51.166;4.760;2023-03-21T10:09:23;11.40;99.90
27384;DHT22;14851;51.166;4.760;2023-03-21T10:12:05;11.40;99.90
27384;DHT22;14851;51.166;4.760;2023-03-21T10:14:34;11.40;99.90
27384;DHT22;14851;51.166;4.760;2023-03-21T10:19:48;11.60;99.90
27384;DHT22;14851;51.166;4.760;2023-03-21T10:22:22;11.60;99.90
27384;DHT22;14851;51.166;4.760;2023-03-21T10:24:47;11.70;99.90
27384;DHT22;14851;51.166;4.760;2023-03-21T10:27:13;11.80;99.90
27384;DHT22;14851;51.166;4.760;2023-03-21T10:29:44;11.80;99.90
27384;DHT22;14851;51.166;4.760;2023-03-21T10:32:14;11.80;99.90
27384;DHT22;14851;51.166;4.760;2023-03-21T10:34:53;11.80;99.90
27384;DHT22;14851;51.166;4.760;2023-03-21T10:37:21;11.90;99.90
27384;DHT22;14851;51.166;4.760;2023-03-21T10:39:49;11.80;99.90
27384;DHT22;14851;51.166;4.760;2023-03-21T10:42:29;11.80;99.90
27384;DHT22;14851;51.166;4.760;2023-03-21T10:44:58;11.90;99.90
27384;DHT22;14851;51.166;4.760;2023-03-21T10:47:31;12.00;99.90
27384;DHT22;14851;51.166;4.760;2023-03-21T10:50:10;12.00;99.90
27384;DHT22;14851;51.166;4.760;2023-03-21T10:52:45;12.10;99.90
27384;DHT22;14851;51.166;4.760;2023-03-21T10:55:24;12.10;99.90
27384;DHT22;14851;51.166;4.760;2023-03-21T10:58:03;12.10;99.90
27384;DHT22;14851;51.166;4.760;2023-03-21T11:00:40;12.20;99.90
27384;DHT22;14851;51.166;4.760;2023-03-21T11:03:32;12.20;99.90
27384;DHT22;14851;51.166;4.760;2023-03-21T11:06:21;12.30;99.90
27384;DHT22;14851;51.166;4.760;2023-03-21T11:08:54;12.30;99.90
27384;DHT22;14851;51.166;4.760;2023-03-21T11:11:33;12.30;99.90
27384;DHT22;14851;51.166;4.760;2023-03-21T11:14:05;12.40;99.90
27384;DHT22;14851;51.166;4.760;2023-03-21T11:16:41;12.40;99.90
27384;DHT22;14851;51.166;4.760;2023-03-21T11:19:33;12.50;99.90
27384;DHT22;14851;51.166;4.760;2023-03-21T11:22:06;12.50;99.90
27384;DHT22;14851;51.166;4.760;2023-03-21T11:24:33;12.50;99.90
27384;DHT22;14851;51.166;4.760;2023-03-21T11:27:06;12.50;99.90
27384;DHT22;14851;51.166;4.760;2023-03-21T11:29:44;12.60;99.90
27384;DHT22;14851;51.166;4.760;2023-03-21T11:34:57;12.70;99.90
27384;DHT22;14851;51.166;4.760;2023-03-21T11:37:45;12.80;99.90
27384;DHT22;14851;51.166;4.760;2023-03-21T11:40:51;12.80;99.90
27384;DHT22;14851;51.166;4.760;2023-03-21T11:43:25;12.80;99.90
27384;DHT22;14851;51.166;4.760;2023-03-21T11:48:21;12.80;99.90
27384;DHT22;14851;51.166;4.760;2023-03-21T11:50:49;12.80;99.90
27384;DHT22;14851;51.166;4.760;2023-03-21T11:56:32;12.90;99.90
27384;DHT22;14851;51.166;4.760;2023-03-21T12:01:44;13.00;99.90
27384;DHT22;14851;51.166;4.760;2023-03-21T12:15:19;12.90;99.90
27384;DHT22;14851;51.166;4.760;2023-03-21T12:40:35;13.30;99.90
27384;DHT22;14851;51.166;4.760;2023-03-21T12:46:04;13.40;99.90
27384;DHT22;14851;51.166;4.760;2023-03-21T12:51:32;13.40;99.90
27384;DHT22;14851;51.166;4.760;2023-03-21T12:59:22;13.50;99.90
27384;DHT22;14851;51.166;4.760;2023-03-21T13:01:55;13.50;99.90
27384;DHT22;14851;51.166;4.760;2023-03-21T13:07:36;13.50;99.90
27384;DHT22;14851;51.166;4.760;2023-03-21T13:10:17;13.50;99.90
27384;DHT22;14851;51.166;4.760;2023-03-21T13:12:50;13.50;99.90
27384;DHT22;14851;51.166;4.760;2023-03-21T13:20:56;13.70;99.90
27384;DHT22;14851;51.166;4.760;2023-03-21T13:23:24;13.70;99.90
27384;DHT22;14851;51.166;4.760;2023-03-21T13:25:53;13.80;99.90
27384;DHT22;14851;51.166;4.760;2023-03-21T13:28:27;13.80;99.90
27384;DHT22;14851;51.166;4.760;2023-03-21T13:31:19;13.80;99.90
27384;DHT22;14851;51.166;4.760;2023-03-21T13:33:50;13.80;99.90
27384;DHT22;14851;51.166;4.760;2023-03-21T13:36:26;13.80;99.90
27384;DHT22;14851;51.166;4.760;2023-03-21T13:39:03;13.80;99.90
27384;DHT22;14851;51.166;4.760;2023-03-21T13:41:38;13.80;99.90
27384;DHT22;14851;51.166;4.760;2023-03-21T13:44:07;13.90;99.90
27384;DHT22;14851;51.166;4.760;2023-03-21T13:47:02;13.90;99.90
27384;DHT22;14851;51.166;4.760;2023-03-21T13:49:34;13.90;99.90
27384;DHT22;14851;51.166;4.760;2023-03-21T13:52:26;14.00;99.90
27384;DHT22;14851;51.166;4.760;2023-03-21T13:54:54;13.90;99.90
27384;DHT22;14851;51.166;4.760;2023-03-21T14:00:20;13.90;99.90
27384;DHT22;14851;51.166;4.760;2023-03-21T14:03:12;13.90;99.90
27384;DHT22;14851;51.166;4.760;2023-03-21T14:05:49;13.90;99.90
27384;DHT22;14851;51.166;4.760;2023-03-21T14:08:17;13.90;99.90
27384;DHT22;14851;51.166;4.760;2023-03-21T14:10:47;13.90;99.90
27384;DHT22;14851;51.166;4.760;2023-03-21T14:13:20;13.90;99.90
27384;DHT22;14851;51.166;4.760;2023-03-21T14:15:52;13.90;99.90
27384;DHT22;14851;51.166;4.760;2023-03-21T14:18:21;13.90;99.90
27384;DHT22;14851;51.166;4.760;2023-03-21T14:20:53;14.00;99.90
27384;DHT22;14851;51.166;4.760;2023-03-21T14:23:20;14.00;99.90
27384;DHT22;14851;51.166;4.760;2023-03-21T14:25:46;14.00;99.90
27384;DHT22;14851;51.166;4.760;2023-03-21T14:28:20;14.00;99.90
27384;DHT22;14851;51.166;4.760;2023-03-21T14:30:53;14.00;99.90
27384;DHT22;14851;51.166;4.760;2023-03-21T14:33:28;14.00;99.90
27384;DHT22;14851;51.166;4.760;2023-03-21T14:35:58;14.00;99.90
27384;DHT22;14851;51.166;4.760;2023-03-21T14:38:32;14.00;99.90
27384;DHT22;14851;51.166;4.760;2023-03-21T14:40:59;14.00;99.90
27384;DHT22;14851;51.166;4.760;2023-03-21T14:43:26;14.00;99.90
27384;DHT22;14851;51.166;4.760;2023-03-21T14:45:55;14.00;99.90
27384;DHT22;14851;51.166;4.760;2023-03-21T14:48:34;13.90;99.90
27384;DHT22;14851;51.166;4.760;2023-03-21T14:51:06;14.00;99.90
27384;DHT22;14851;51.166;4.760;2023-03-21T14:53:39;14.00;99.90
27384;DHT22;14851;51.166;4.760;2023-03-21T14:58:33;13.90;99.90
27384;DHT22;14851;51.166;4.760;2023-03-21T15:01:06;13.80;99.90
27384;DHT22;14851;51.166;4.760;2023-03-21T15:03:33;13.80;99.90
27384;DHT22;14851;51.166;4.760;2023-03-21T15:06:02;13.80;99.90
27384;DHT22;14851;51.166;4.760;2023-03-21T15:08:29;13.80;99.90
27384;DHT22;14851;51.166;4.760;2023-03-21T15:11:00;13.80;99.90
27384;DHT22;14851;51.166;4.760;2023-03-21T15:16:00;13.80;99.90
27384;DHT22;14851;51.166;4.760;2023-03-21T15:18:31;13.80;99.90
27384;DHT22;14851;51.166;4.760;2023-03-21T15:21:03;13.80;99.90
27384;DHT22;14851;51.166;4.760;2023-03-21T15:23:41;13.80;99.90
27384;DHT22;14851;51.166;4.760;2023-03-21T15:26:18;13.90;99.90
27384;DHT22;14851;51.166;4.760;2023-03-21T15:28:49;13.90;99.90
27384;DHT22;14851;51.166;4.760;2023-03-21T15:31:39;13.90;99.90
27384;DHT22;14851;51.166;4.760;2023-03-21T15:34:21;13.90;99.90
27384;DHT22;14851;51.166;4.760;2023-03-21T15:36:53;13.90;99.90
27384;DHT22;14851;51.166;4.760;2023-03-21T15:39:22;13.90;99.90
27384;DHT22;14851;51.166;4.760;2023-03-21T15:42:04;13.90;99.90
27384;DHT22;14851;51.166;4.760;2023-03-21T15:44:32;13.90;99.90
27384;DHT22;14851;51.166;4.760;2023-03-21T15:47:00;13.90;99.90
27384;DHT22;14851;51.166;4.760;2023-03-21T15:49:32;13.90;99.90
27384;DHT22;14851;51.166;4.760;2023-03-21T15:52:15;13.80;99.90
27384;DHT22;14851;51.166;4.760;2023-03-21T15:54:47;13.70;99.90
27384;DHT22;14851;51.166;4.760;2023-03-21T15:57:29;13.70;99.90
27384;DHT22;14851;51.166;4.760;2023-03-21T16:02:39;13.70;99.90
27384;DHT22;14851;51.166;4.760;2023-03-21T16:05:23;13.60;99.90
27384;DHT22;14851;51.166;4.760;2023-03-21T16:07:56;13.50;99.90
27384;DHT22;14851;51.166;4.760;2023-03-21T16:10:31;13.40;99.90
27384;DHT22;14851;51.166;4.760;2023-03-21T16:12:58;13.40;99.90
27384;DHT22;14851;51.166;4.760;2023-03-21T16:15:26;13.30;99.90
27384;DHT22;14851;51.166;4.760;2023-03-21T16:18:04;13.30;99.90
27384;DHT22;14851;51.166;4.760;2023-03-21T16:20:33;13.20;99.90
27384;DHT22;14851;51.166;4.760;2023-03-21T16:23:00;13.20;99.90
27384;DHT22;14851;51.166;4.760;2023-03-21T16:25:27;13.10;99.90
27384;DHT22;14851;51.166;4.760;2023-03-21T16:27:56;13.00;99.90
27384;DHT22;14851;51.166;4.760;2023-03-21T16:30:22;13.00;99.90
27384;DHT22;14851;51.166;4.760;2023-03-21T16:32:51;13.00;99.90
27384;DHT22;14851;51.166;4.760;2023-03-21T16:35:20;13.00;99.90
27384;DHT22;14851;51.166;4.760;2023-03-21T16:37:48;13.00;99.90
27384;DHT22;14851;51.166;4.760;2023-03-21T16:40:18;13.00;99.90
27384;DHT22;14851;51.166;4.760;2023-03-21T16:42:47;13.00;99.90
27384;DHT22;14851;51.166;4.760;2023-03-21T16:45:13;13.00;99.90
27384;DHT22;14851;51.166;4.760;2023-03-21T16:47:39;13.00;99.90
27384;DHT22;14851;51.166;4.760;2023-03-21T16:50:41;13.00;99.90
27384;DHT22;14851;51.166;4.760;2023-03-21T16:53:08;13.00;99.90
27384;DHT22;14851;51.166;4.760;2023-03-21T16:55:34;13.00;99.90
27384;DHT22;14851;51.166;4.760;2023-03-21T16:58:01;13.00;99.90
27384;DHT22;14851;51.166;4.760;2023-03-21T17:00:28;13.00;99.90
27384;DHT22;14851;51.166;4.760;2023-03-21T17:03:04;13.00;99.90
27384;DHT22;14851;51.166;4.760;2023-03-21T17:05:33;13.00;99.90
27384;DHT22;14851;51.166;4.760;2023-03-21T17:07:59;13.00;99.90
27384;DHT22;14851;51.166;4.760;2023-03-21T17:10:31;13.00;99.90
27384;DHT22;14851;51.166;4.760;2023-03-21T17:12:57;13.00;99.90
27384;DHT22;14851;51.166;4.760;2023-03-21T17:15:23;13.00;99.90
27384;DHT22;14851;51.166;4.760;2023-03-21T17:17:50;13.00;99.90
27384;DHT22;14851;51.166;4.760;2023-03-21T17:20:24;12.90;99.90
27384;DHT22;14851;51.166;4.760;2023-03-21T17:22:50;12.90;99.90
27384;DHT22;14851;51.166;4.760;2023-03-21T17:25:18;12.90;99.90
27384;DHT22;14851;51.166;4.760;2023-03-21T17:27:46;12.90;99.90
27384;DHT22;14851;51.166;4.760;2023-03-21T17:30:42;12.80;99.90
27384;DHT22;14851;51.166;4.760;2023-03-21T17:33:08;12.80;99.90
27384;DHT22;14851;51.166;4.760;2023-03-21T17:35:37;12.70;99.90
27384;DHT22;14851;51.166;4.760;2023-03-21T17:38:03;12.80;99.90
27384;DHT22;14851;51.166;4.760;2023-03-21T17:40:30;12.80;99.90
27384;DHT22;14851;51.166;4.760;2023-03-21T17:42:57;12.80;99.90
27384;DHT22;14851;51.166;4.760;2023-03-21T17:45:24;12.80;99.90
27384;DHT22;14851;51.166;4.760;2023-03-21T17:47:50;12.70;99.90
27384;DHT22;14851;51.166;4.760;2023-03-21T17:50:24;12.70;99.90
27384;DHT22;14851;51.166;4.760;2023-03-21T17:52:50;12.70;99.90
27384;DHT22;14851;51.166;4.760;2023-03-21T17:55:19;12.60;99.90
27384;DHT22;14851;51.166;4.760;2023-03-21T17:57:46;12.70;99.90
27384;DHT22;14851;51.166;4.760;2023-03-21T18:00:23;12.60;99.90
27384;DHT22;14851;51.166;4.760;2023-03-21T18:02:50;12.60;99.90
27384;DHT22;14851;51.166;4.760;2023-03-21T18:05:17;12.60;99.90
27384;DHT22;14851;51.166;4.760;2023-03-21T18:07:45;12.50;99.90
27384;DHT22;14851;51.166;4.760;2023-03-21T18:10:15;12.50;99.90
27384;DHT22;14851;51.166;4.760;2023-03-21T18:12:41;12.50;99.90
27384;DHT22;14851;51.166;4.760;2023-03-21T18:15:08;12.50;99.90
27384;DHT22;14851;51.166;4.760;2023-03-21T18:17:37;12.50;99.90
27384;DHT22;14851;51.166;4.760;2023-03-21T18:20:06;12.50;99.90
27384;DHT22;14851;51.166;4.760;2023-03-21T18:22:35;12.50;99.90
27384;DHT22;14851;51.166;4.760;2023-03-21T18:25:02;12.50;99.90
27384;DHT22;14851;51.166;4.760;2023-03-21T18:27:30;12.50;99.90
27384;DHT22;14851;51.166;4.760;2023-03-21T18:29:56;12.50;99.90
27384;DHT22;14851;51.166;4.760;2023-03-21T18:32:23;12.50;99.90
27384;DHT22;14851;51.166;4.760;2023-03-21T18:34:51;12.50;99.90
27384;DHT22;14851;51.166;4.760;2023-03-21T18:37:17;12.50;99.90
27384;DHT22;14851;51.166;4.760;2023-03-21T18:39:43;12.40;99.90
27384;DHT22;14851;51.166;4.760;2023-03-21T18:42:11;12.40;99.90
27384;DHT22;14851;51.166;4.760;2023-03-21T18:44:37;12.40;99.90
27384;DHT22;14851;51.166;4.760;2023-03-21T18:47:10;12.40;99.90
27384;DHT22;14851;51.166;4.760;2023-03-21T18:49:37;12.40;99.90
27384;DHT22;14851;51.166;4.760;2023-03-21T18:52:04;12.40;99.90
27384;DHT22;14851;51.166;4.760;2023-03-21T18:54:33;12.30;99.90
27384;DHT22;14851;51.166;4.760;2023-03-21T18:57:00;12.40;99.90
27384;DHT22;14851;51.166;4.760;2023-03-21T18:59:28;12.40;99.90
27384;DHT22;14851;51.166;4.760;2023-03-21T19:01:55;12.40;99.90
27384;DHT22;14851;51.166;4.760;2023-03-21T19:04:21;12.50;99.90
27384;DHT22;14851;51.166;4.760;2023-03-21T19:06:48;12.40;99.90
27384;DHT22;14851;51.166;4.760;2023-03-21T19:09:15;12.40;99.90
27384;DHT22;14851;51.166;4.760;2023-03-21T19:11:41;12.50;99.90
27384;DHT22;14851;51.166;4.760;2023-03-21T19:14:08;12.50;99.90
27384;DHT22;14851;51.166;4.760;2023-03-21T19:16:35;12.50;99.90
27384;DHT22;14851;51.166;4.760;2023-03-21T19:19:01;12.40;99.90
27384;DHT22;14851;51.166;4.760;2023-03-21T19:21:28;12.50;99.90
27384;DHT22;14851;51.166;4.760;2023-03-21T19:23:54;12.50;99.90
27384;DHT22;14851;51.166;4.760;2023-03-21T19:26:24;12.40;99.90
27384;DHT22;14851;51.166;4.760;2023-03-21T19:28:50;12.40;99.90
27384;DHT22;14851;51.166;4.760;2023-03-21T19:31:16;12.40;99.90
27384;DHT22;14851;51.166;4.760;2023-03-21T19:33:46;12.40;99.90
27384;DHT22;14851;51.166;4.760;2023-03-21T19:36:12;12.40;99.90
27384;DHT22;14851;51.166;4.760;2023-03-21T19:38:40;12.40;99.90
27384;DHT22;14851;51.166;4.760;2023-03-21T19:41:06;12.40;99.90
27384;DHT22;14851;51.166;4.760;2023-03-21T19:43:34;12.40;99.90
27384;DHT22;14851;51.166;4.760;2023-03-21T19:46:03;12.40;99.90